Time;durP1;ratioP1;P1;durP2;ratioP2;P2;SDS_P1;SDS_P2;PMS_P1;PMS_P2;Temp;Humidity;BMP_temperature;BMP_pressure;BME280_temperature;BME280_humidity;BME280_pressure;Samples;Min_cycle;Max_cycle;Signal;HPM_P1;HPM_P2
2022/05/07 00:01:33;;;;;;;4.97;0.93;;;;;;;15.24;100.00;100626.72;7388834;19;20098;-56
2022/05/07 00:03:59;;;;;;;4.40;1.15;;;;;;;15.20;100.00;100635.38;7389879;19;20098;-56
2022/05/07 00:06:25;;;;;;;0.90;0.57;;;;;;;15.14;100.00;100629.66;7392490;19;20010;-56
2022/05/07 00:08:51;;;;;;;2.92;1.02;;;;;;;15.08;100.00;100626.00;7389098;19;20388;-56
2022/05/07 00:11:20;;;;;;;3.63;1.25;;;;;;;15.00;100.00;100633.28;7390183;19;20014;-56
2022/05/07 00:13:48;;;;;;;2.03;1.13;;;;;;;14.91;100.00;100632.63;7389020;19;20336;-56
2022/05/07 00:18:59;;;;;;;2.40;1.17;;;;;;;14.65;100.00;100629.66;7396548;19;20021;-56
2022/05/07 00:21:25;;;;;;;2.53;1.15;;;;;;;14.66;100.00;100631.19;7396171;19;20714;-56
2022/05/07 00:23:51;;;;;;;0.82;0.20;;;;;;;14.67;100.00;100629.94;7395339;19;20037;-56
2022/05/07 00:26:17;;;;;;;6.32;1.58;;;;;;;14.66;100.00;100636.06;7395978;19;20021;-58
2022/05/07 00:28:47;;;;;;;1.50;0.95;;;;;;;14.40;100.00;100635.88;7395985;19;20014;-58
2022/05/07 00:31:13;;;;;;;3.28;0.98;;;;;;;14.43;100.00;100640.50;7395971;19;20010;-58
2022/05/07 00:33:39;;;;;;;1.60;1.50;;;;;;;14.39;100.00;100637.13;7395769;19;20017;-58
2022/05/07 00:36:05;;;;;;;4.97;1.20;;;;;;;14.29;100.00;100647.63;7398359;19;20015;-58
2022/05/07 00:38:32;;;;;;;3.30;1.23;;;;;;;14.03;100.00;100643.03;7395578;19;20011;-58
2022/05/07 00:40:59;;;;;;;3.65;0.85;;;;;;;13.91;100.00;100649.66;7392985;19;20026;-58
2022/05/07 00:43:33;;;;;;;3.50;1.38;;;;;;;13.83;100.00;100642.91;7394068;19;20014;-58
2022/05/07 00:45:59;;;;;;;4.93;1.20;;;;;;;13.80;100.00;100638.25;7397162;19;20382;-58
2022/05/07 00:48:26;;;;;;;6.53;1.60;;;;;;;13.66;100.00;100642.56;7393526;19;20018;-58
2022/05/07 00:53:38;;;;;;;0.90;0.90;;;;;;;13.57;100.00;100651.81;7393740;19;20595;-59
2022/05/07 00:56:04;;;;;;;2.28;1.10;;;;;;;13.52;100.00;100657.25;7396699;19;20018;-58
2022/05/07 00:58:31;;;;;;;2.50;1.08;;;;;;;13.46;100.00;100651.56;7392107;19;20416;-59
2022/05/07 01:00:57;;;;;;;1.80;0.85;;;;;;;13.44;100.00;100642.09;7400310;19;20392;-59
2022/05/07 01:03:24;;;;;;;4.43;1.80;;;;;;;13.43;100.00;100649.69;7393467;19;20086;-59
2022/05/07 01:05:50;;;;;;;4.28;1.15;;;;;;;13.42;100.00;100650.19;7398609;19;20014;-59
2022/05/07 01:08:19;;;;;;;2.97;1.30;;;;;;;13.37;100.00;100654.41;7392362;19;20604;-59
2022/05/07 01:10:47;;;;;;;3.75;1.73;;;;;;;13.34;100.00;100646.94;7392945;19;20028;-58
2022/05/07 01:13:14;;;;;;;1.95;0.63;;;;;;;13.29;100.00;100661.63;7392673;19;20034;-58
2022/05/07 01:15:44;;;;;;;2.92;0.88;;;;;;;13.24;100.00;100661.47;7395132;19;20038;-58
2022/05/07 01:18:12;;;;;;;;;;;;;;;13.19;100.00;100651.69;7393359;19;20019;-58
2022/05/07 01:20:39;;;;;;;3.50;1.52;;;;;;;13.13;100.00;100659.19;7393247;19;19914;-57
2022/05/07 01:23:06;;;;;;;0.95;0.90;;;;;;;13.10;100.00;100654.56;7392237;19;20379;-58
2022/05/07 01:25:33;;;;;;;1.75;0.98;;;;;;;13.05;100.00;100658.00;7394598;19;20021;-58
2022/05/07 01:27:59;;;;;;;4.13;1.48;;;;;;;13.02;100.00;100658.91;7390397;19;20023;-58
2022/05/07 01:30:27;;;;;;;5.75;1.45;;;;;;;12.97;100.00;100656.78;7395511;19;20014;-58
2022/05/07 01:32:53;;;;;;;3.92;1.25;;;;;;;12.85;100.00;100652.94;7391761;19;20366;-58
2022/05/07 01:35:20;;;;;;;0.95;0.57;;;;;;;12.80;100.00;100659.16;7394959;19;20021;-57
2022/05/07 01:37:49;;;;;;;3.90;1.23;;;;;;;12.79;100.00;100670.81;7391748;19;20010;-59
2022/05/07 01:40:15;;;;;;;0.95;0.70;;;;;;;12.74;100.00;100660.25;7391922;19;20030;-57
2022/05/07 01:42:44;;;;;;;3.90;0.98;;;;;;;12.64;100.00;100667.13;7391786;19;20015;-59
2022/05/07 01:45:12;;;;;;;1.13;0.90;;;;;;;12.56;100.00;100660.31;7393986;19;20455;-59
2022/05/07 01:50:27;;;;;;;1.05;0.98;;;;;;;12.40;100.00;100669.03;7390193;19;20015;-59
2022/05/07 01:52:53;;;;;;;2.80;1.00;;;;;;;12.31;100.00;100663.47;7391321;19;20013;-59
2022/05/07 01:55:20;;;;;;;2.03;1.30;;;;;;;12.25;100.00;100684.88;7392060;19;20090;-86
2022/05/07 01:57:50;;;;;;;5.60;2.07;;;;;;;12.23;100.00;100681.78;7393004;19;20025;-84
2022/05/07 02:00:17;;;;;;;2.70;1.77;;;;;;;12.15;100.00;100676.50;7394863;19;20020;-83
2022/05/07 02:02:43;;;;;;;2.78;1.13;;;;;;;12.11;100.00;100677.91;7389339;19;20126;-83
2022/05/07 02:05:17;;;;;;;2.95;1.55;;;;;;;12.13;100.00;100678.22;7390645;19;20082;-82
2022/05/07 02:07:44;;;;;;;3.40;1.23;;;;;;;12.10;100.00;100676.38;7389078;19;20010;-82
2022/05/07 02:10:12;;;;;;;4.55;1.67;;;;;;;12.09;100.00;100677.59;7387971;19;20021;-82
2022/05/07 02:12:38;;;;;;;7.50;1.13;;;;;;;12.07;100.00;100675.28;7388709;19;20597;-83
2022/05/07 02:15:05;;;;;;;3.13;1.15;;;;;;;12.01;100.00;100677.16;7391709;19;20394;-83
2022/05/07 02:17:31;;;;;;;2.53;1.20;;;;;;;11.97;100.00;100682.13;7391226;19;20085;-84
2022/05/07 02:19:58;;;;;;;2.25;0.95;;;;;;;11.92;100.00;100679.94;7391899;19;20402;-83
2022/05/07 02:22:24;;;;;;;1.95;1.08;;;;;;;11.91;100.00;100683.19;7390713;19;20018;-84
2022/05/07 02:24:51;;;;;;;8.93;2.05;;;;;;;11.89;100.00;100680.84;7393365;19;20010;-84
2022/05/07 02:27:22;;;;;;;2.28;1.08;;;;;;;11.86;100.00;100692.19;7389143;19;20023;-84
2022/05/07 02:29:48;;;;;;;1.13;0.73;;;;;;;11.80;100.00;100689.22;7394878;19;20026;-85
2022/05/07 02:32:14;;;;;;;7.28;1.27;;;;;;;11.85;100.00;100691.41;7390722;19;20024;-84
2022/05/07 02:34:43;;;;;;;1.63;1.20;;;;;;;11.85;100.00;100694.19;7391306;19;20076;-83
2022/05/07 02:37:30;;;;;;;3.25;1.08;;;;;;;11.81;100.00;100687.97;7391559;19;20010;-84
2022/05/07 02:39:57;;;;;;;1.08;1.02;;;;;;;11.74;100.00;100695.88;7389466;19;20484;-84
2022/05/07 02:42:36;;;;;;;4.40;1.13;;;;;;;11.69;100.00;100700.06;7391107;19;20046;-84
2022/05/07 02:45:11;;;;;;;6.95;1.23;;;;;;;11.67;100.00;100701.78;7391935;19;20011;-84
2022/05/07 02:47:40;;;;;;;2.05;1.58;;;;;;;11.58;100.00;100699.72;7388807;19;20482;-84
2022/05/07 02:50:08;;;;;;;1.70;1.02;;;;;;;11.51;100.00;100697.22;7393571;19;20014;-85
2022/05/07 02:52:36;;;;;;;8.82;1.45;;;;;;;11.43;100.00;100702.28;7395655;19;20014;-85
2022/05/07 02:55:05;;;;;;;1.05;0.98;;;;;;;11.39;100.00;100698.13;7393104;19;20018;-84
2022/05/07 02:57:31;;;;;;;4.13;1.05;;;;;;;11.35;100.00;100703.03;7391023;19;20456;-84
2022/05/07 02:59:58;;;;;;;5.90;1.92;;;;;;;11.36;100.00;100699.03;7392363;19;20099;-85
2022/05/07 03:02:24;;;;;;;3.30;1.10;;;;;;;11.38;100.00;100705.69;7391691;19;20018;-85
2022/05/07 03:04:52;;;;;;;2.63;0.98;;;;;;;11.34;100.00;100707.88;7388860;19;20471;-85
2022/05/07 03:07:19;;;;;;;6.22;1.10;;;;;;;11.27;100.00;100705.34;7392576;19;20100;-84
2022/05/07 03:09:46;;;;;;;1.23;0.77;;;;;;;11.24;100.00;100705.50;7389410;19;20105;-84
2022/05/07 03:12:13;;;;;;;2.55;1.35;;;;;;;11.22;100.00;100710.75;7388775;19;20377;-84
2022/05/07 03:14:42;;;;;;;8.93;1.75;;;;;;;11.18;100.00;100710.91;7387557;19;20760;-85
2022/05/07 03:17:08;;;;;;;1.67;1.08;;;;;;;11.14;100.00;100721.41;7391569;19;20018;-85
2022/05/07 03:19:35;;;;;;;2.65;1.33;;;;;;;11.13;100.00;100719.09;7388127;19;20018;-84
2022/05/07 03:22:01;;;;;;;2.90;0.80;;;;;;;11.09;100.00;100724.00;7388424;19;20015;-83
2022/05/07 03:24:30;;;;;;;3.50;1.13;;;;;;;11.08;100.00;100733.63;7388165;19;20014;-88
2022/05/07 03:27:00;;;;;;;3.70;1.55;;;;;;;11.09;100.00;100735.16;7393659;19;20503;-87
2022/05/07 03:29:30;;;;;;;3.85;1.20;;;;;;;11.08;100.00;100739.97;7394055;19;20010;-88
2022/05/07 03:32:07;;;;;;;1.05;0.85;;;;;;;11.16;100.00;100746.03;7394674;19;20086;-88
2022/05/07 03:34:33;;;;;;;1.52;1.40;;;;;;;11.29;100.00;100750.28;7387913;19;20423;-80
2022/05/07 03:37:00;;;;;;;5.60;0.80;;;;;;;11.38;100.00;100757.91;7384153;19;20636;-80
2022/05/07 03:39:26;;;;;;;2.50;1.17;;;;;;;11.43;100.00;100751.75;7387663;19;20416;-80
2022/05/07 03:41:54;;;;;;;6.75;1.63;;;;;;;11.45;100.00;100763.22;7384282;19;20486;-80
2022/05/07 03:44:21;;;;;;;8.18;1.50;;;;;;;11.45;100.00;100757.63;7384849;19;20044;-80
2022/05/07 03:46:51;;;;;;;4.57;1.07;;;;;;;11.45;100.00;100763.22;7384492;19;20018;-80
2022/05/07 03:49:18;;;;;;;7.15;1.48;;;;;;;11.45;100.00;100763.22;7385827;19;20017;-79
2022/05/07 03:54:30;;;;;;;1.10;0.73;;;;;;;11.39;100.00;100762.25;7384605;19;20085;-80
2022/05/07 03:56:57;;;;;;;1.60;1.27;;;;;;;11.29;100.00;100767.00;7389091;19;20022;-79
2022/05/07 03:59:27;;;;;;;1.15;0.60;;;;;;;11.23;100.00;100768.06;7386432;19;20025;-79
2022/05/07 04:01:54;;;;;;;3.50;1.10;;;;;;;11.21;100.00;100776.13;7385810;19;20014;-79
2022/05/07 04:04:29;;;;;;;5.97;1.63;;;;;;;11.23;100.00;100773.66;7384913;19;20081;-80
2022/05/07 04:07:03;;;;;;;1.75;1.10;;;;;;;11.27;100.00;100775.06;7386009;19;20021;-80
2022/05/07 04:09:29;;;;;;;2.10;0.98;;;;;;;11.38;100.00;100777.44;7387452;19;20389;-82
2022/05/07 04:11:56;;;;;;;0.85;0.85;;;;;;;11.49;100.00;100786.16;7385828;19;20353;-83
2022/05/07 04:14:22;;;;;;;2.47;0.70;;;;;;;11.61;100.00;100787.28;7390939;19;20363;-88
2022/05/07 04:16:52;;;;;;;2.13;1.23;;;;;;;11.71;100.00;100781.31;7394678;19;20014;-87
2022/05/07 04:19:18;;;;;;;1.27;0.95;;;;;;;11.81;100.00;100780.09;7396573;19;20018;-87
2022/05/07 04:21:46;;;;;;;2.78;1.77;;;;;;;11.84;100.00;100778.38;7395306;19;20014;-87
2022/05/07 04:24:26;;;;;;;2.30;1.13;;;;;;;11.86;100.00;100776.69;7390254;19;20018;-86
2022/05/07 04:26:56;;;;;;;1.45;1.02;;;;;;;11.92;100.00;100779.63;7388576;19;20063;-86
2022/05/07 04:29:22;;;;;;;1.95;0.90;;;;;;;11.98;100.00;100781.34;7393331;19;20472;-86
2022/05/07 04:31:59;;;;;;;3.38;1.40;;;;;;;11.98;100.00;100784.16;7389355;19;20018;-87
2022/05/07 04:34:28;;;;;;;12.55;0.93;;;;;;;11.96;100.00;100781.03;7389804;19;20013;-85
2022/05/07 04:36:56;;;;;;;2.42;1.23;;;;;;;12.01;100.00;100788.81;7389404;19;20082;-82
2022/05/07 04:39:22;;;;;;;2.40;1.35;;;;;;;12.04;100.00;100784.31;7384758;19;20021;-83
2022/05/07 04:41:57;;;;;;;2.15;1.27;;;;;;;12.08;100.00;100791.28;7389314;19;20460;-85
2022/05/07 04:44:33;;;;;;;5.65;1.00;;;;;;;12.13;100.00;100793.47;7386749;19;20014;-85
2022/05/07 04:47:00;;;;;;;0.75;0.75;;;;;;;12.18;100.00;100798.47;7386762;19;20019;-83
2022/05/07 04:49:27;;;;;;;6.80;1.77;;;;;;;12.28;100.00;100795.69;7386983;19;20018;-83
2022/05/07 04:51:53;;;;;;;4.90;0.98;;;;;;;12.34;100.00;100802.97;7388693;19;20334;-84
2022/05/07 04:54:24;;;;;;;4.90;0.77;;;;;;;12.43;100.00;100813.38;7388414;19;20018;-85
2022/05/07 04:56:52;;;;;;;2.28;1.02;;;;;;;12.47;100.00;100814.00;7388490;19;20018;-85
2022/05/07 04:59:20;;;;;;;3.35;1.50;;;;;;;12.56;100.00;100814.00;7387415;19;20022;-84
2022/05/07 05:01:53;;;;;;;1.73;0.93;;;;;;;12.61;100.00;100813.38;7387527;19;20022;-84
2022/05/07 05:04:21;;;;;;;2.95;0.98;;;;;;;12.64;100.00;100818.03;7391066;19;20357;-83
2022/05/07 05:06:49;;;;;;;1.52;1.02;;;;;;;12.73;100.00;100823.63;7393008;19;20557;-83
2022/05/07 05:09:19;;;;;;;3.53;1.88;;;;;;;12.77;100.00;100827.03;7393330;19;20011;-84
2022/05/07 05:11:57;;;;;;;4.72;1.38;;;;;;;12.81;100.00;100827.63;7392816;19;20084;-84
2022/05/07 05:17:09;;;;;;;3.95;1.50;;;;;;;12.86;100.00;100836.16;7391500;19;20018;-84
2022/05/07 05:19:41;;;;;;;3.28;1.00;;;;;;;12.83;100.00;100834.31;7392753;19;20492;-83
2022/05/07 05:22:11;;;;;;;4.85;1.75;;;;;;;12.80;100.00;100837.25;7394890;19;20524;-84
2022/05/07 05:24:38;;;;;;;3.63;1.95;;;;;;;12.77;100.00;100839.00;7397041;19;20014;-83
2022/05/07 05:27:04;;;;;;;6.50;2.00;;;;;;;12.77;100.00;100832.63;7396383;19;20014;-83
2022/05/07 05:29:37;;;;;;;5.78;2.05;;;;;;;12.76;100.00;100842.22;7395415;19;20010;-81
2022/05/07 05:32:07;;;;;;;1.73;0.90;;;;;;;12.75;100.00;100849.09;7395147;19;20015;-83
2022/05/07 05:34:36;;;;;;;6.38;1.75;;;;;;;12.83;100.00;100844.72;7395622;19;20373;-82
2022/05/07 05:37:03;;;;;;;4.45;0.93;;;;;;;12.86;100.00;100852.19;7396539;19;20416;-84
2022/05/07 05:39:36;;;;;;;4.25;1.38;;;;;;;12.83;100.00;100856.69;7395255;19;20014;-84
2022/05/07 05:42:02;;;;;;;2.38;1.05;;;;;;;12.88;100.00;100861.66;7395617;19;20025;-83
2022/05/07 05:44:29;;;;;;;1.75;1.52;;;;;;;12.91;100.00;100868.31;7393171;19;20023;-81
2022/05/07 05:46:56;;;;;;;7.90;1.65;;;;;;;12.92;100.00;100873.47;7392731;19;20014;-81
2022/05/07 05:49:25;;;;;;;3.58;0.68;;;;;;;12.95;100.00;100872.50;7393937;19;20028;-81
2022/05/07 05:51:54;;;;;;;3.13;1.42;;;;;;;12.96;100.00;100867.69;7391336;19;20027;-81
2022/05/07 05:54:20;;;;;;;2.15;1.25;;;;;;;12.97;100.00;100874.84;7391800;19;20018;-78
2022/05/07 05:56:47;;;;;;;2.95;1.38;;;;;;;12.97;100.00;100883.25;7392922;19;20014;-85
2022/05/07 05:59:14;;;;;;;5.57;2.58;;;;;;;12.98;100.00;100876.41;7394073;19;20579;-85
2022/05/07 06:01:48;;;;;;;4.88;1.45;;;;;;;13.03;100.00;100884.16;7392484;19;20475;-84
2022/05/07 06:04:40;;;;;;;1.67;1.23;;;;;;;13.07;100.00;100884.03;7393528;19;20015;-85
2022/05/07 06:07:15;;;;;;;3.25;1.70;;;;;;;13.10;100.00;100885.91;7394793;19;20056;-85
2022/05/07 06:09:43;;;;;;;7.72;1.45;;;;;;;13.15;100.00;100888.84;7394882;19;20430;-86
2022/05/07 06:12:15;;;;;;;1.42;1.38;;;;;;;13.16;100.00;100893.19;7398774;19;20018;-85
2022/05/07 06:14:41;;;;;;;0.98;0.98;;;;;;;13.17;100.00;100896.75;7394200;19;20082;-87
2022/05/07 06:17:08;;;;;;;1.70;1.23;;;;;;;13.16;100.00;100893.19;7396748;19;20019;-89
2022/05/07 06:19:35;;;;;;;2.88;1.33;;;;;;;13.22;100.00;100905.31;7396920;19;20017;-87
2022/05/07 06:22:02;;;;;;;4.00;1.98;;;;;;;13.22;100.00;100896.91;7398171;19;20021;-88
2022/05/07 06:27:33;;;;;;;2.28;1.13;;;;;;;13.06;100.00;100900.03;7393438;19;20380;-88
2022/05/07 06:30:17;;;;;;;7.60;2.53;;;;;;;12.86;100.00;100896.91;7398720;19;20102;-87
2022/05/07 06:32:49;;;;;;;4.00;1.45;;;;;;;12.78;100.00;100895.66;7397388;19;20369;-88
2022/05/07 06:35:15;;;;;;;2.65;1.45;;;;;;;12.73;100.00;100904.69;7398485;19;20011;-88
2022/05/07 06:38:05;;;;;;;4.47;1.23;;;;;;;12.76;100.00;100914.91;7394245;19;20350;-87
2022/05/07 06:40:32;;;;;;;1.00;0.90;;;;;;;12.84;100.00;100910.59;7392294;19;20018;-86
2022/05/07 06:42:58;;;;;;;7.05;2.03;;;;;;;12.83;100.00;100920.19;7391107;19;20007;-85
2022/05/07 06:45:32;;;;;;;5.38;1.90;;;;;;;12.90;100.00;100919.91;7396302;19;20022;-86
2022/05/07 06:48:00;;;;;;;1.50;1.15;;;;;;;13.04;100.00;100919.25;7391594;19;20027;-85
2022/05/07 06:50:27;;;;;;;1.63;1.00;;;;;;;13.16;100.00;100918.38;7395625;19;20347;-87
2022/05/07 06:52:53;;;;;;;1.50;1.02;;;;;;;13.21;100.00;100905.78;7400037;19;20367;-88
2022/05/07 06:55:20;;;;;;;1.23;0.43;;;;;;;13.36;100.00;100923.47;7395116;19;20557;-86
2022/05/07 06:57:46;;;;;;;1.75;0.90;;;;;;;13.50;100.00;100925.63;7398263;19;20007;-87
2022/05/07 07:00:14;;;;;;;3.03;1.65;;;;;;;13.66;100.00;100931.63;7396152;19;20015;-86
2022/05/07 07:02:40;;;;;;;2.00;1.45;;;;;;;13.75;100.00;100932.88;7392866;19;20011;-86
2022/05/07 07:05:07;;;;;;;4.40;1.23;;;;;;;13.81;100.00;100925.38;7394839;19;20038;-85
2022/05/07 07:07:33;;;;;;;1.63;0.90;;;;;;;13.87;100.00;100924.28;7393550;19;20011;-88
2022/05/07 07:10:00;;;;;;;1.48;0.90;;;;;;;13.98;100.00;100934.97;7394899;19;20110;-87
2022/05/07 07:12:26;;;;;;;3.92;1.23;;;;;;;14.15;100.00;100931.31;7394481;19;20504;-87
2022/05/07 07:14:52;;;;;;;2.83;1.33;;;;;;;14.27;100.00;100935.91;7396097;19;20714;-87
2022/05/07 07:17:19;;;;;;;2.38;1.02;;;;;;;14.34;100.00;100929.22;7395694;19;20011;-86
2022/05/07 07:19:45;;;;;;;3.40;1.23;;;;;;;14.35;100.00;100933.56;7395645;19;20019;-87
2022/05/07 07:22:12;;;;;;;6.13;1.77;;;;;;;14.43;100.00;100937.56;7394207;19;20015;-88
2022/05/07 07:24:38;;;;;;;2.03;0.75;;;;;;;14.30;100.00;100928.63;7393642;19;20042;-87
2022/05/07 07:27:05;;;;;;;1.13;0.88;;;;;;;14.26;100.00;100928.00;7393430;19;20012;-88
2022/05/07 07:29:32;;;;;;;1.63;0.40;;;;;;;14.29;100.00;100927.81;7396517;19;20342;-87
2022/05/07 07:31:58;;;;;;;2.60;0.85;;;;;;;14.53;100.00;100930.66;7393530;19;20022;-87
2022/05/07 07:34:24;;;;;;;2.35;1.17;;;;;;;14.61;100.00;100931.09;7394556;19;20010;-88
2022/05/07 07:36:51;;;;;;;8.43;0.95;;;;;;;14.54;100.00;100943.44;7395963;19;20014;-88
2022/05/07 07:39:18;;;;;;;1.65;0.57;;;;;;;14.47;100.00;100937.41;7394825;19;20074;-88
2022/05/07 07:41:44;;;;;;;1.30;0.85;;;;;;;14.34;100.00;100948.81;7395306;19;20019;-87
2022/05/07 07:44:11;;;;;;;1.05;0.75;;;;;;;14.19;100.00;100940.31;7394024;19;20029;-88
2022/05/07 07:49:21;;;;;;;0.50;0.43;;;;;;;13.79;100.00;100950.28;7393862;19;20038;-87
2022/05/07 07:51:47;;;;;;;1.45;0.68;;;;;;;13.69;100.00;100944.69;7395162;19;20031;-87
2022/05/07 07:54:14;;;;;;;1.23;1.13;;;;;;;13.64;100.00;100942.53;7394222;19;20563;-87
2022/05/07 07:56:43;;;;;;;0.70;0.50;;;;;;;13.58;100.00;100944.41;7392926;19;20010;-86
2022/05/07 07:59:10;;;;;;;4.47;0.90;;;;;;;13.46;100.00;100945.38;7393729;19;20014;-86
2022/05/07 08:01:36;;;;;;;2.47;0.60;;;;;;;13.48;100.00;100948.47;7391895;19;20082;-86
2022/05/07 08:04:04;;;;;;;5.60;1.20;;;;;;;13.49;100.00;100950.03;7395240;19;20031;-87
2022/05/07 08:06:31;;;;;;;0.88;0.88;;;;;;;13.50;100.00;100951.59;7396023;19;20038;-87
2022/05/07 08:11:47;;;;;;;1.25;0.68;;;;;;;13.61;100.00;100957.47;7393509;19;20804;-85
2022/05/07 08:14:13;;;;;;;3.13;0.88;;;;;;;13.72;100.00;100961.81;7389792;19;20086;-88
2022/05/07 08:16:44;;;;;;;1.83;0.70;;;;;;;13.76;100.00;100956.81;7393454;19;20348;-85
2022/05/07 08:19:12;;;;;;;1.00;0.70;;;;;;;13.86;100.00;100949.94;7388393;19;20013;-84
2022/05/07 08:21:38;;;;;;;4.75;1.05;;;;;;;14.04;100.00;100955.47;7389277;19;20070;-85
2022/05/07 08:24:05;;;;;;;0.68;0.50;;;;;;;14.19;100.00;100961.94;7390072;19;20014;-84
2022/05/07 08:26:31;;;;;;;1.75;1.10;;;;;;;14.25;100.00;100958.03;7388262;19;20011;-85
2022/05/07 08:28:57;;;;;;;2.60;0.75;;;;;;;14.48;100.00;100964.19;7387361;19;20049;-85
2022/05/07 08:31:23;;;;;;;0.88;0.55;;;;;;;14.69;100.00;100975.09;7389808;19;20078;-85
2022/05/07 08:33:51;;;;;;;1.45;0.52;;;;;;;15.00;100.00;100977.56;7389147;19;20019;-82
2022/05/07 08:36:17;;;;;;;7.30;1.65;;;;;;;15.19;100.00;100976.16;7388828;19;20029;-84
2022/05/07 08:38:43;;;;;;;6.85;2.60;;;;;;;15.33;100.00;100969.03;7392281;19;20795;-83
2022/05/07 08:41:11;;;;;;;1.85;1.20;;;;;;;15.47;100.00;100968.28;7395975;19;20022;-82
2022/05/07 08:43:40;;;;;;;5.65;2.13;;;;;;;15.65;100.00;100968.13;7392376;19;20026;-82
2022/05/07 08:46:16;;;;;;;1.65;0.90;;;;;;;15.94;100.00;100965.28;7393782;19;20575;-82
2022/05/07 08:48:45;;;;;;;5.43;0.75;;;;;;;16.17;100.00;100963.63;7392401;19;20022;-83
2022/05/07 08:51:13;;;;;;;1.83;0.77;;;;;;;16.28;100.00;100964.59;7394257;19;20022;-83
2022/05/07 08:53:40;;;;;;;3.33;1.60;;;;;;;16.49;100.00;100971.78;7391892;19;20043;-82
2022/05/07 08:56:08;;;;;;;0.93;0.93;;;;;;;16.67;100.00;100968.75;7394325;19;20042;-85
2022/05/07 08:58:34;;;;;;;1.33;0.65;;;;;;;16.62;100.00;100968.69;7394866;19;20093;-84
2022/05/07 09:01:00;;;;;;;1.02;0.90;;;;;;;16.75;100.00;100968.34;7398416;19;20018;-82
2022/05/07 09:03:38;;;;;;;1.90;0.80;;;;;;;16.82;100.00;100962.28;7398648;19;20014;-87
2022/05/07 09:06:21;;;;;;;1.48;0.50;;;;;;;16.85;100.00;100964.13;7398475;19;20014;-83
2022/05/07 09:08:48;;;;;;;1.00;0.90;;;;;;;16.80;100.00;100970.44;7390754;19;20022;-83
2022/05/07 09:11:16;;;;;;;0.93;0.43;;;;;;;16.76;100.00;100962.22;7392077;19;20773;-83
2022/05/07 09:13:43;;;;;;;0.77;0.50;;;;;;;16.90;100.00;100952.16;7393674;19;20018;-83
2022/05/07 09:16:09;;;;;;;1.50;0.63;;;;;;;17.12;100.00;100958.84;7393489;19;20014;-83
2022/05/07 09:18:36;;;;;;;1.55;0.65;;;;;;;17.06;100.00;100948.78;7392083;19;20022;-85
2022/05/07 09:21:16;;;;;;;0.40;0.40;;;;;;;17.04;100.00;100962.59;7393306;19;20428;-86
2022/05/07 09:23:44;;;;;;;0.98;0.65;;;;;;;17.10;100.00;100955.75;7392186;19;20018;-86
2022/05/07 09:26:22;;;;;;;2.30;0.65;;;;;;;17.17;100.00;100954.53;7393511;19;20138;-85
2022/05/07 09:28:49;;;;;;;0.28;0.28;;;;;;;17.27;100.00;100948.25;7388629;19;20027;-86
2022/05/07 09:31:30;;;;;;;1.88;1.02;;;;;;;17.38;100.00;100953.25;7388591;19;20021;-86
2022/05/07 09:36:46;;;;;;;1.83;0.90;;;;;;;17.41;100.00;100957.88;7394945;19;20492;-84
2022/05/07 09:39:14;;;;;;;3.25;0.40;;;;;;;17.39;100.00;100960.41;7391649;19;20090;-86
2022/05/07 09:41:43;;;;;;;0.25;0.20;;;;;;;17.39;100.00;100961.19;7390968;19;20381;-85
2022/05/07 09:44:10;;;;;;;3.50;0.55;;;;;;;17.42;100.00;100959.41;7390733;19;20480;-87
2022/05/07 09:46:40;;;;;;;2.60;1.02;;;;;;;17.56;100.00;100966.25;7394918;19;20025;-86
2022/05/07 09:49:07;;;;;;;0.57;0.40;;;;;;;17.50;100.00;100959.78;7394465;19;20026;-87
2022/05/07 09:51:33;;;;;;;1.63;1.08;;;;;;;17.65;100.00;100966.09;7391781;19;20039;-85
2022/05/07 09:59:31;;;;;;;0.25;0.25;;;;;;;17.78;100.00;100944.69;7391721;19;20019;-85
2022/05/07 10:02:29;;;;;;;0.73;0.55;;;;;;;18.00;100.00;100942.06;7396586;19;20062;-88
2022/05/07 10:05:22;;;;;;;1.45;0.40;;;;;;;18.11;100.00;100947.78;7396712;19;20460;-86
2022/05/07 10:08:09;;;;;;;3.05;0.35;;;;;;;18.14;100.00;100955.25;7394069;19;20015;-86
2022/05/07 10:10:37;;;;;;;4.95;0.52;;;;;;;18.23;100.00;100950.69;7395629;19;20035;-86
2022/05/07 10:13:07;;;;;;;1.33;0.15;;;;;;;18.26;100.00;100947.63;7392552;19;20018;-85
2022/05/07 10:15:34;;;;;;;;;;;;;;;18.25;100.00;100950.97;7391431;19;20538;-86
2022/05/07 10:18:02;;;;;;;0.68;0.35;;;;;;;18.23;100.00;100956.31;7390303;19;19970;-85
2022/05/07 10:20:40;;;;;;;0.77;0.32;;;;;;;18.31;100.00;100960.22;7392086;19;20128;-86
2022/05/07 10:23:11;;;;;;;0.50;0.30;;;;;;;18.45;100.00;100945.97;7387676;19;20086;-86
2022/05/07 10:25:38;;;;;;;3.17;0.17;;;;;;;18.61;100.00;100950.19;7391681;19;20038;-86
2022/05/07 10:28:14;;;;;;;0.85;0.35;;;;;;;18.69;100.00;100956.91;7391077;19;20476;-85
2022/05/07 10:30:51;;;;;;;0.32;0.10;;;;;;;18.77;100.00;100952.31;7391237;19;20022;-84
2022/05/07 10:33:18;;;;;;;1.75;0.22;;;;;;;18.81;100.00;100947.22;7391005;19;20602;-86
2022/05/07 10:35:55;;;;;;;1.23;0.10;;;;;;;18.97;100.00;100954.22;7394987;19;20054;-87
2022/05/07 10:38:38;;;;;;;1.25;0.30;;;;;;;19.01;100.00;100958.34;7392793;19;20386;-86
2022/05/07 10:41:07;;;;;;;0.95;0.50;;;;;;;19.07;100.00;100947.84;7393502;19;20018;-90
2022/05/07 10:43:34;;;;;;;0.80;0.50;;;;;;;19.07;100.00;100953.47;7392865;19;20488;-85
2022/05/07 10:46:12;;;;;;;0.47;0.43;;;;;;;19.07;100.00;100964.00;7394601;19;20037;-86
2022/05/07 10:48:56;;;;;;;0.98;0.38;;;;;;;19.19;100.00;100954.31;7391261;19;20014;-85
2022/05/07 10:51:29;;;;;;;2.50;0.20;;;;;;;19.01;100.00;100957.56;7391357;19;20022;-90
2022/05/07 10:54:00;;;;;;;0.65;0.20;;;;;;;18.93;100.00;100960.88;7398612;19;20043;-92
2022/05/07 10:56:30;;;;;;;1.20;0.65;;;;;;;18.75;100.00;100960.53;7400187;19;20023;-92
2022/05/07 10:58:57;;;;;;;2.50;1.05;;;;;;;18.71;100.00;100960.00;7398383;19;20524;-93
2022/05/07 11:01:26;;;;;;;0.30;0.30;;;;;;;18.93;100.00;100965.72;7395951;19;20028;-93
2022/05/07 11:04:08;;;;;;;3.75;0.35;;;;;;;19.18;100.00;100959.19;7397257;19;20103;-93
2022/05/07 11:06:40;;;;;;;0.32;0.20;;;;;;;19.41;100.00;100957.19;7397758;19;20010;-93
2022/05/07 11:09:14;;;;;;;1.15;0.30;;;;;;;19.78;100.00;100957.00;7392537;19;20010;-93
2022/05/07 11:11:46;;;;;;;5.03;0.52;;;;;;;20.10;100.00;100952.63;7396605;19;20070;-93
2022/05/07 11:14:30;;;;;;;1.20;0.17;;;;;;;20.42;100.00;100968.06;7396939;19;20048;-93
2022/05/07 11:16:58;;;;;;;1.80;0.40;;;;;;;20.59;100.00;100953.88;7395961;19;20358;-92
2022/05/07 11:19:29;;;;;;;1.17;0.38;;;;;;;20.38;100.00;100957.00;7394648;19;20027;-92
2022/05/07 11:21:56;;;;;;;0.52;0.38;;;;;;;20.16;100.00;100956.25;7396597;19;20015;-93
2022/05/07 11:24:25;;;;;;;1.20;0.10;;;;;;;19.98;100.00;100959.59;7396421;19;20014;-94
2022/05/07 11:26:56;;;;;;;0.10;0.10;;;;;;;20.15;100.00;100958.28;7396267;19;20010;-94
2022/05/07 11:29:23;;;;;;;0.63;0.15;;;;;;;20.12;100.00;100961.41;7396576;19;20014;-93
2022/05/07 11:32:04;;;;;;;0.95;0.20;;;;;;;20.05;100.00;100953.41;7396180;19;20360;-91
2022/05/07 11:34:32;;;;;;;4.65;0.30;;;;;;;20.04;100.00;100952.66;7405502;19;20026;-96
2022/05/07 11:37:17;;;;;;;0.85;0.38;;;;;;;20.31;100.00;100953.94;7400551;19;20021;-94
2022/05/07 11:39:50;;;;;;;0.95;0.40;;;;;;;20.29;100.00;100951.63;7406879;19;20038;-96
2022/05/07 11:42:26;;;;;;;0.85;0.32;;;;;;;20.32;100.00;100958.31;7396425;19;20010;-95
2022/05/07 11:47:54;;;;;;;1.02;0.20;;;;;;;20.08;100.00;100955.19;7395244;19;20020;-96
2022/05/07 11:50:25;;;;;;;1.80;0.20;;;;;;;19.89;100.00;100963.44;7394442;19;20493;-95
2022/05/07 11:52:52;;;;;;;;;;;;;;;19.84;100.00;100958.53;7393467;19;20240;-93
2022/05/07 11:55:24;;;;;;;0.28;0.20;;;;;;;19.71;100.00;100960.34;7389564;19;19925;-93
2022/05/07 11:57:50;;;;;;;1.70;0.22;;;;;;;19.86;100.00;100961.63;7389120;19;20086;-93
2022/05/07 12:00:25;;;;;;;0.20;0.10;;;;;;;19.92;100.00;100953.16;7389115;19;20026;-95